Time;durP1;ratioP1;P1;durP2;ratioP2;P2;SDS_P1;SDS_P2;PMS_P1;PMS_P2;Temp;Humidity;BMP_temperature;BMP_pressure;BME280_temperature;BME280_humidity;BME280_pressure;Samples;Min_cycle;Max_cycle;Signal;HPM_P1;HPM_P2
2023/08/26 00:00:36;;;;;;;11.35;7.82;;;;;;;16.75;100.00;100778.69;1020222;29;20036;-53
2023/08/26 00:01:12;;;;;;;8.32;7.45;;;;;;;16.79;100.00;100779.78;1018338;29;20067;-54
2023/08/26 00:02:07;;;;;;;15.68;9.18;;;;;;;16.84;100.00;100770.94;1024220;28;20112;-52
2023/08/26 00:03:13;;;;;;;11.45;7.45;;;;;;;16.88;100.00;100772.84;1025827;28;20058;-54
2023/08/26 00:04:10;;;;;;;9.07;7.72;;;;;;;16.89;100.00;100769.09;1024958;28;20180;-50
2023/08/26 00:05:26;;;;;;;;;;;;;;;;;;;;;
2023/08/26 00:06:09;;;;;;;8.63;7.72;;;;;;;16.65;100.00;100770.50;1025199;28;20035;-50
2023/08/26 00:06:59;;;;;;;14.90;8.30;;;;;;;16.66;100.00;100770.25;1031203;28;20134;-50
2023/08/26 00:07:42;;;;;;;11.63;7.82;;;;;;;16.68;100.00;100773.50;1027986;28;20039;-54
2023/08/26 00:11:12;;;;;;;11.77;7.18;;;;;;;16.57;100.00;100771.78;1029032;28;20046;-50
2023/08/26 00:11:44;;;;;;;10.35;7.40;;;;;;;16.60;100.00;100781.22;1030598;28;20093;-52
2023/08/26 00:12:15;;;;;;;15.73;7.78;;;;;;;16.41;100.00;100771.91;1027041;28;20042;-53
2023/08/26 00:12:47;;;;;;;8.50;7.70;;;;;;;16.42;100.00;100773.53;1029682;28;20125;-51
2023/08/26 00:13:18;;;;;;;10.50;7.72;;;;;;;16.46;100.00;100769.28;1030448;28;20050;-50
2023/08/26 00:13:50;;;;;;;8.70;7.03;;;;;;;16.51;100.00;100774.69;1031343;28;20050;-51
2023/08/26 00:14:22;;;;;;;13.70;8.35;;;;;;;16.55;100.00;100773.13;1031262;28;20042;-52
2023/08/26 00:14:53;;;;;;;10.32;7.20;;;;;;;16.50;100.00;100767.72;1030594;28;20050;-50
2023/08/26 00:15:25;;;;;;;9.50;6.75;;;;;;;16.43;100.00;100759.84;1031132;28;20133;-49
2023/08/26 00:15:56;;;;;;;9.88;7.75;;;;;;;16.52;100.00;100762.88;1046521;28;20189;-52
2023/08/26 00:16:39;;;;;;;8.60;6.72;;;;;;;16.38;100.00;100757.91;1048167;28;20045;-53
2023/08/26 00:17:28;;;;;;;10.23;7.57;;;;;;;16.18;100.00;100757.78;1041090;28;20470;-54
2023/08/26 00:18:17;;;;;;;9.48;8.48;;;;;;;16.05;100.00;100750.09;1039442;28;20109;-49
2023/08/26 00:18:59;;;;;;;10.15;7.22;;;;;;;15.93;100.00;100749.47;1037083;28;20526;-52
2023/08/26 00:19:31;;;;;;;14.80;7.68;;;;;;;15.84;100.00;100756.34;1038924;28;20045;-51
2023/08/26 00:20:05;;;;;;;11.00;7.85;;;;;;;16.06;100.00;100749.03;1034950;28;20038;-49
2023/08/26 00:20:38;;;;;;;9.88;7.72;;;;;;;16.16;100.00;100754.53;1034659;28;20062;-52
2023/08/26 00:21:10;;;;;;;9.32;6.65;;;;;;;16.20;100.00;100755.63;1038803;28;20045;-51
2023/08/26 00:21:59;;;;;;;10.27;7.35;;;;;;;16.22;100.00;100753.50;1039838;28;20526;-51
2023/08/26 00:22:40;;;;;;;10.00;7.35;;;;;;;16.23;100.00;100748.94;1034203;28;20081;-55
2023/08/26 00:23:22;;;;;;;11.48;6.93;;;;;;;16.28;100.00;100752.47;1027342;28;20527;-52
2023/08/26 00:24:02;;;;;;;10.10;7.35;;;;;;;16.30;100.00;100755.72;1027645;28;20047;-54
2023/08/26 00:24:38;;;;;;;8.20;7.40;;;;;;;16.41;100.00;100755.78;1035763;28;20137;-54
2023/08/26 00:25:25;;;;;;;9.85;7.95;;;;;;;16.33;100.00;100757.88;1032102;28;20038;-52
2023/08/26 00:26:13;;;;;;;8.55;7.60;;;;;;;16.31;100.00;100761.91;1032282;28;20062;-52
2023/08/26 00:26:51;;;;;;;10.77;7.30;;;;;;;16.38;100.00;100754.41;1032532;28;20559;-50
2023/08/26 00:27:28;;;;;;;12.73;7.47;;;;;;;16.38;100.00;100757.09;1038490;28;20107;-51
2023/08/26 00:28:30;;;;;;;11.18;7.18;;;;;;;16.38;100.00;100757.09;1036439;28;20038;-52
2023/08/26 00:29:26;;;;;;;11.90;6.45;;;;;;;16.00;100.00;100760.81;1036917;28;20045;-53
2023/08/26 00:30:07;;;;;;;10.60;6.78;;;;;;;15.86;100.00;100756.88;1038356;28;20038;-54
2023/08/26 00:31:17;;;;;;;11.52;6.60;;;;;;;15.92;100.00;100754.03;1031421;28;20444;-49
2023/08/26 00:32:02;;;;;;;8.32;6.72;;;;;;;16.00;100.00;100758.13;1033857;28;20053;-54
2023/08/26 00:32:33;;;;;;;12.75;7.78;;;;;;;15.95;100.00;100753.50;1040196;28;20038;-54
2023/08/26 00:33:06;;;;;;;11.23;7.25;;;;;;;15.94;100.00;100762.63;1043241;28;20041;-54
2023/08/26 00:33:38;;;;;;;10.38;6.85;;;;;;;15.91;100.00;100757.78;1039514;28;20076;-54
2023/08/26 00:34:10;;;;;;;9.95;7.00;;;;;;;15.97;100.00;100758.63;1042762;28;20051;-54
2023/08/26 00:34:46;;;;;;;7.25;5.80;;;;;;;16.02;100.00;100753.31;1039272;28;20423;-53
2023/08/26 00:35:40;;;;;;;13.07;6.60;;;;;;;16.06;100.00;100754.41;1039618;28;20045;-54
2023/08/26 00:36:32;;;;;;;8.43;6.47;;;;;;;15.84;100.00;100757.16;1029067;28;20043;-51
2023/08/26 00:37:35;;;;;;;6.70;6.07;;;;;;;15.65;100.00;100759.38;1039263;28;20057;-54
2023/08/26 00:38:19;;;;;;;8.35;6.80;;;;;;;15.95;100.00;100766.13;1047396;28;20041;-53
2023/08/26 00:38:51;;;;;;;11.18;6.22;;;;;;;16.11;100.00;100767.88;1047880;28;20041;-54
2023/08/26 00:39:23;;;;;;;12.00;7.68;;;;;;;16.10;100.00;100760.91;1047792;28;20047;-54
2023/08/26 00:40:06;;;;;;;10.23;6.97;;;;;;;16.16;100.00;100767.13;1048870;28;20049;-53
2023/08/26 00:40:58;;;;;;;9.45;6.53;;;;;;;16.20;100.00;100771.75;1045186;28;20048;-54
2023/08/26 00:41:46;;;;;;;10.32;7.22;;;;;;;16.19;100.00;100764.75;1042409;28;20229;-54
2023/08/26 00:42:18;;;;;;;8.82;6.95;;;;;;;16.22;100.00;100764.25;1045303;28;20056;-54
2023/08/26 00:42:53;;;;;;;12.32;7.03;;;;;;;16.13;100.00;100765.75;1048167;28;20059;-54
2023/08/26 00:43:26;;;;;;;14.30;8.30;;;;;;;15.96;100.00;100754.31;1044418;28;20037;-54
2023/08/26 00:43:57;;;;;;;9.50;7.45;;;;;;;16.15;100.00;100747.50;1040084;28;20049;-54
2023/08/26 00:44:29;;;;;;;11.30;6.88;;;;;;;16.23;100.00;100757.81;1039541;28;20042;-54
2023/08/26 00:45:01;;;;;;;8.70;7.43;;;;;;;16.21;100.00;100767.19;1040242;28;20072;-54
2023/08/26 00:45:32;;;;;;;9.15;7.93;;;;;;;16.19;100.00;100754.00;1034601;28;20532;-54
2023/08/26 00:46:04;;;;;;;9.80;7.05;;;;;;;16.22;100.00;100756.19;1035269;28;20646;-54
2023/08/26 00:46:36;;;;;;;12.15;7.60;;;;;;;16.24;100.00;100756.75;1040097;28;20064;-54
2023/08/26 00:47:08;;;;;;;7.82;7.13;;;;;;;16.33;100.00;100763.25;1033084;28;20046;-54
2023/08/26 00:47:52;;;;;;;;;;;;;;;;;;;;;
2023/08/26 00:49:11;;;;;;;;;;;;;;;;;;;;;
2023/08/26 00:49:59;;;;;;;8.02;6.60;;;;;;;15.98;100.00;100752.19;1039909;28;20164;-51
2023/08/26 00:50:46;;;;;;;7.82;6.50;;;;;;;15.84;100.00;100750.97;1032322;28;20200;-54
2023/08/26 00:51:19;;;;;;;11.65;8.05;;;;;;;15.75;100.00;100759.47;1029782;28;20548;-54
2023/08/26 00:52:08;;;;;;;17.63;7.03;;;;;;;15.94;100.00;100751.09;1033382;28;20547;-54
2023/08/26 00:53:00;;;;;;;10.30;6.35;;;;;;;15.93;100.00;100750.28;1040517;28;20048;-53
2023/08/26 00:53:42;;;;;;;9.82;6.60;;;;;;;15.94;100.00;100746.53;1040153;28;20065;-52
2023/08/26 00:54:20;;;;;;;14.05;7.47;;;;;;;15.96;100.00;100754.31;1036439;28;20232;-51
2023/08/26 00:55:20;;;;;;;14.80;6.88;;;;;;;15.99;100.00;100754.63;1035913;28;20049;-50
2023/08/26 00:56:07;;;;;;;7.35;6.20;;;;;;;16.07;100.00;100758.72;1035836;28;20042;-50
2023/08/26 00:56:58;;;;;;;11.95;6.85;;;;;;;16.02;100.00;100758.69;1038892;28;20084;-52
2023/08/26 00:57:52;;;;;;;7.72;6.93;;;;;;;15.98;100.00;100757.56;1031595;28;20137;-54
2023/08/26 00:58:48;;;;;;;10.32;7.15;;;;;;;15.88;100.00;100758.25;1034240;28;20046;-52
2023/08/26 00:59:37;;;;;;;8.43;6.30;;;;;;;15.76;100.00;100758.41;1036581;28;20041;-52
2023/08/26 01:00:43;;;;;;;7.00;6.00;;;;;;;15.74;100.00;100760.53;1042854;28;20074;-54
2023/08/26 01:01:29;;;;;;;8.27;7.03;;;;;;;15.79;100.00;100750.91;1039050;28;20042;-52
2023/08/26 01:02:13;;;;;;;11.13;7.25;;;;;;;15.74;100.00;100751.69;1040331;28;20109;-50
2023/08/26 01:03:05;;;;;;;8.90;7.88;;;;;;;15.63;100.00;100753.44;1037073;28;20212;-53
2023/08/26 01:03:50;;;;;;;8.90;6.47;;;;;;;15.74;100.00;100749.81;1037835;28;20057;-53
2023/08/26 01:04:39;;;;;;;8.15;6.70;;;;;;;15.74;100.00;100746.31;1035356;28;20050;-51
2023/08/26 01:05:26;;;;;;;10.85;6.95;;;;;;;15.88;100.00;100746.69;1032140;28;20046;-51
2023/08/26 01:06:36;;;;;;;14.98;6.93;;;;;;;16.05;100.00;100750.09;1026953;28;20047;-50
2023/08/26 01:07:19;;;;;;;8.05;7.10;;;;;;;16.11;100.00;100751.78;1033680;28;20458;-49
2023/08/26 01:08:04;;;;;;;10.85;6.47;;;;;;;16.08;100.00;100746.91;1030016;28;20039;-54
2023/08/26 01:08:39;;;;;;;12.95;7.35;;;;;;;15.94;100.00;100745.72;1023600;28;20406;-54
2023/08/26 01:09:16;;;;;;;14.35;8.07;;;;;;;16.06;100.00;100754.41;1024477;28;20039;-54
2023/08/26 01:10:05;;;;;;;8.93;6.82;;;;;;;16.05;100.00;100747.41;1026999;28;20118;-52
2023/08/26 01:11:21;;;;;;;7.60;6.82;;;;;;;16.15;100.00;100752.88;1030373;28;20054;-54
2023/08/26 01:12:34;;;;;;;11.35;7.55;;;;;;;16.05;100.00;100747.41;1030278;28;20077;-50
2023/08/26 01:13:16;;;;;;;9.88;7.10;;;;;;;16.05;100.00;100744.72;1033053;28;20556;-50
2023/08/26 01:14:40;;;;;;;7.72;6.95;;;;;;;16.09;100.00;100743.16;1033043;28;20613;-50
2023/08/26 01:15:19;;;;;;;9.90;7.47;;;;;;;16.07;100.00;100734.53;1035538;28;20445;-54
2023/08/26 01:16:20;;;;;;;9.23;7.28;;;;;;;16.05;100.00;100739.34;1031001;28;20050;-54
2023/08/26 01:17:16;;;;;;;12.23;6.63;;;;;;;16.16;100.00;100742.94;1018462;29;20054;-53
2023/08/26 01:18:00;;;;;;;15.65;7.93;;;;;;;16.15;100.00;100742.13;1024561;28;20058;-54
2023/08/26 01:18:40;;;;;;;10.07;7.10;;;;;;;16.14;100.00;100745.06;1027246;28;20395;-53
2023/08/26 01:19:45;;;;;;;8.38;7.22;;;;;;;16.10;100.00;100744.78;1028760;28;20077;-51
2023/08/26 01:20:46;;;;;;;8.43;7.38;;;;;;;16.10;100.00;100755.53;1036191;28;20595;-53
2023/08/26 01:21:32;;;;;;;14.30;7.43;;;;;;;16.12;100.00;100755.25;1036103;28;20042;-50
2023/08/26 01:22:20;;;;;;;14.50;8.13;;;;;;;16.00;100.00;100747.38;1032769;28;20460;-49
2023/08/26 01:23:13;;;;;;;11.20;7.28;;;;;;;15.92;100.00;100747.84;1032307;28;20055;-50
2023/08/26 01:23:56;;;;;;;8.82;7.93;;;;;;;15.99;100.00;100754.63;1029843;28;20803;-50
2023/08/26 01:24:54;;;;;;;10.07;6.43;;;;;;;15.94;100.00;100751.91;1023686;28;20399;-54
2023/08/26 01:25:47;;;;;;;;;;;;;;;;;;;;;
2023/08/26 01:26:24;;;;;;;14.18;7.65;;;;;;;15.88;100.00;100746.69;1035158;28;20038;-54
2023/08/26 01:27:35;;;;;;;7.88;7.07;;;;;;;15.85;100.00;100753.41;1034195;28;20041;-54
2023/08/26 01:28:19;;;;;;;8.32;6.93;;;;;;;15.91;100.00;100756.97;1034274;28;20038;-54
2023/08/26 01:29:35;;;;;;;8.95;7.07;;;;;;;15.83;100.00;100760.09;1031028;28;20439;-54
2023/08/26 01:30:15;;;;;;;11.30;7.20;;;;;;;15.75;100.00;100756.78;1029632;28;20042;-50
2023/08/26 01:31:02;;;;;;;15.20;6.88;;;;;;;15.70;100.00;100750.56;1035453;28;20068;-53
2023/08/26 01:32:19;;;;;;;12.60;6.82;;;;;;;15.39;100.00;100754.75;1037908;28;20046;-52
2023/08/26 01:33:22;;;;;;;11.45;6.28;;;;;;;15.55;100.00;100753.84;1025750;28;20055;-54
2023/08/26 01:34:10;;;;;;;6.88;5.72;;;;;;;15.55;100.00;100748.47;1031569;28;20489;-51
2023/08/26 01:35:32;;;;;;;9.80;5.85;;;;;;;15.58;100.00;100756.06;1035207;28;20090;-52
2023/08/26 01:36:17;;;;;;;8.73;5.72;;;;;;;15.65;100.00;100753.19;1036670;28;20523;-49
2023/08/26 01:37:01;;;;;;;8.43;6.45;;;;;;;15.71;100.00;100753.00;1034669;28;20120;-50
2023/08/26 01:37:39;;;;;;;8.98;6.45;;;;;;;15.70;100.00;100756.75;1032626;28;20046;-52
2023/08/26 01:38:31;;;;;;;10.23;7.28;;;;;;;15.81;100.00;100762.22;1034195;28;20105;-50
2023/08/26 01:39:41;;;;;;;10.98;6.57;;;;;;;15.48;100.00;100758.59;1035748;28;20042;-53
2023/08/26 01:40:31;;;;;;;6.60;5.80;;;;;;;15.43;100.00;100755.84;1036322;28;20038;-51
2023/08/26 01:41:22;;;;;;;6.65;5.90;;;;;;;15.49;100.00;100754.03;1032065;28;20046;-54
2023/08/26 01:42:11;;;;;;;6.75;6.07;;;;;;;15.52;100.00;100748.97;1024840;28;20051;-50
2023/08/26 01:42:52;;;;;;;8.90;6.88;;;;;;;15.74;100.00;100755.16;1024930;28;20064;-50
2023/08/26 01:43:34;;;;;;;11.18;6.53;;;;;;;15.71;100.00;100753.00;1033683;28;20054;-54
2023/08/26 01:44:24;;;;;;;6.45;5.85;;;;;;;15.70;100.00;100743.31;1027830;28;20079;-54
2023/08/26 01:45:23;;;;;;;9.32;6.07;;;;;;;15.80;100.00;100753.34;1028335;28;20045;-52
2023/08/26 01:46:38;;;;;;;9.40;7.03;;;;;;;15.48;100.00;100739.81;1043926;28;20299;-50
2023/08/26 01:47:10;;;;;;;8.00;7.20;;;;;;;15.54;100.00;100740.69;1043484;28;20037;-50
2023/08/26 01:47:42;;;;;;;11.32;6.65;;;;;;;15.56;100.00;100739.34;1043426;28;20438;-51
2023/08/26 01:48:16;;;;;;;8.98;7.45;;;;;;;15.52;100.00;100748.16;1039324;28;20037;-49
2023/08/26 01:48:47;;;;;;;9.82;6.75;;;;;;;15.47;100.00;100743.56;1041404;28;20050;-51
2023/08/26 01:49:19;;;;;;;10.82;7.10;;;;;;;15.64;100.00;100751.56;1043502;28;20041;-50
2023/08/26 01:49:51;;;;;;;11.05;7.68;;;;;;;15.55;100.00;100748.47;1040097;28;20136;-50
2023/08/26 01:50:45;;;;;;;8.13;7.38;;;;;;;15.61;100.00;100747.53;1038396;28;20042;-54
2023/08/26 01:51:47;;;;;;;14.15;6.68;;;;;;;15.68;100.00;100745.44;1045193;28;20049;-51
2023/08/26 01:52:40;;;;;;;13.63;7.05;;;;;;;15.55;100.00;100743.09;1043207;28;20045;-50
2023/08/26 01:53:49;;;;;;;10.32;6.93;;;;;;;15.63;100.00;100747.28;1037749;28;20037;-51
2023/08/26 01:54:49;;;;;;;14.02;7.57;;;;;;;15.60;100.00;100740.50;1044378;28;20041;-49
2023/08/26 01:55:38;;;;;;;8.90;7.10;;;;;;;15.48;100.00;100737.13;1049723;28;20040;-54
2023/08/26 01:56:14;;;;;;;9.45;8.27;;;;;;;15.67;100.00;100735.78;1044598;28;20130;-53
2023/08/26 01:57:05;;;;;;;9.07;7.32;;;;;;;15.63;100.00;100729.28;1044826;28;20063;-53
2023/08/26 01:57:54;;;;;;;11.45;7.07;;;;;;;15.59;100.00;100732.69;1040686;28;20085;-51
2023/08/26 01:58:34;;;;;;;9.15;7.60;;;;;;;15.40;100.00;100734.91;1037566;28;20125;-53
2023/08/26 01:59:21;;;;;;;8.07;6.57;;;;;;;15.23;100.00;100728.75;1037249;28;20417;-50
2023/08/26 02:00:24;;;;;;;10.98;7.30;;;;;;;15.39;100.00;100734.09;1040523;28;20113;-54
2023/08/26 02:01:05;;;;;;;10.65;5.97;;;;;;;15.12;100.00;100731.34;1049257;28;20107;-52
2023/08/26 02:01:56;;;;;;;9.55;7.70;;;;;;;15.04;100.00;100742.47;1044227;28;20037;-52
2023/08/26 02:02:45;;;;;;;9.20;7.13;;;;;;;15.08;100.00;100738.25;1042730;28;20419;-53
2023/08/26 02:03:50;;;;;;;9.75;6.03;;;;;;;15.31;100.00;100739.06;1044299;28;20438;-49
2023/08/26 02:04:34;;;;;;;8.75;6.93;;;;;;;15.24;100.00;100733.06;1030809;28;20042;-53
2023/08/26 02:05:19;;;;;;;10.52;6.55;;;;;;;15.21;100.00;100745.13;1029448;28;20047;-53
2023/08/26 02:06:14;;;;;;;14.73;7.50;;;;;;;15.19;100.00;100749.91;1032862;28;20049;-49
2023/08/26 02:07:02;;;;;;;8.07;7.28;;;;;;;15.34;100.00;100746.59;1037103;28;20145;-54
2023/08/26 02:07:38;;;;;;;14.38;7.72;;;;;;;15.47;100.00;100756.97;1038462;28;20051;-54
2023/08/26 02:08:10;;;;;;;8.38;6.30;;;;;;;15.51;100.00;100758.09;1039732;28;20148;-54
2023/08/26 02:08:41;;;;;;;8.75;6.50;;;;;;;15.49;100.00;100754.84;1035488;28;20117;-54
2023/08/26 02:09:29;;;;;;;9.05;7.00;;;;;;;15.51;100.00;100760.78;1034740;28;20094;-50
2023/08/26 02:10:12;;;;;;;12.27;6.97;;;;;;;15.54;100.00;100756.78;1039806;28;20045;-51
2023/08/26 02:10:56;;;;;;;8.60;7.00;;;;;;;15.21;100.00;100765.78;1038433;28;20180;-54
2023/08/26 02:11:37;;;;;;;12.63;7.38;;;;;;;15.08;100.00;100759.72;1040150;28;20150;-52
2023/08/26 02:12:15;;;;;;;13.02;7.25;;;;;;;15.29;100.00;100755.41;1035629;28;20050;-53
2023/08/26 02:12:53;;;;;;;9.27;7.03;;;;;;;15.30;100.00;100761.59;1039349;28;20128;-51
2023/08/26 02:13:57;;;;;;;20.23;7.97;;;;;;;15.18;100.00;100752.84;1032859;28;20413;-54
2023/08/26 02:14:50;;;;;;;10.07;7.05;;;;;;;15.26;100.00;100755.09;1039748;28;20041;-54
2023/08/26 02:15:36;;;;;;;15.27;7.40;;;;;;;15.24;100.00;100758.03;1048453;28;20125;-53
2023/08/26 02:16:50;;;;;;;9.73;7.50;;;;;;;15.24;100.00;100758.03;1032110;28;20568;-49
2023/08/26 02:17:25;;;;;;;11.98;6.97;;;;;;;15.36;100.00;100753.38;1041449;28;20234;-54
2023/08/26 02:17:58;;;;;;;10.90;8.07;;;;;;;15.31;100.00;100752.47;1039644;28;20627;-54
2023/08/26 02:18:30;;;;;;;10.07;6.93;;;;;;;15.50;100.00;100753.78;1037732;28;20037;-53
2023/08/26 02:19:01;;;;;;;15.80;7.95;;;;;;;15.45;100.00;100748.38;1040761;28;20033;-54
2023/08/26 02:19:33;;;;;;;10.75;7.65;;;;;;;15.40;100.00;100751.00;1039466;28;20038;-54
2023/08/26 02:20:07;;;;;;;9.90;7.55;;;;;;;15.49;100.00;100749.47;1039678;28;20041;-54
2023/08/26 02:20:40;;;;;;;7.88;7.00;;;;;;;15.59;100.00;100755.00;1039498;28;20041;-54
2023/08/26 02:21:12;;;;;;;11.75;7.28;;;;;;;15.65;100.00;100750.50;1034274;28;20099;-53
2023/08/26 02:21:44;;;;;;;7.93;7.13;;;;;;;15.49;100.00;100743.31;1039167;28;20096;-54
2023/08/26 02:22:16;;;;;;;12.05;7.35;;;;;;;15.58;100.00;100748.00;1043832;28;20102;-54
2023/08/26 02:22:47;;;;;;;12.48;7.53;;;;;;;15.55;100.00;100737.72;1041623;28;20037;-54
2023/08/26 02:23:19;;;;;;;8.07;7.28;;;;;;;15.51;100.00;100747.34;1045485;28;21263;-54
2023/08/26 02:23:50;;;;;;;8.25;6.60;;;;;;;15.47;100.00;100743.56;1049289;28;20055;-54
2023/08/26 02:24:22;;;;;;;9.65;7.28;;;;;;;15.47;100.00;100743.56;1047865;28;20074;-54
2023/08/26 02:24:54;;;;;;;8.77;6.65;;;;;;;15.49;100.00;100738.75;1048157;28;20051;-54
2023/08/26 02:25:26;;;;;;;13.00;8.18;;;;;;;15.45;100.00;100743.00;1040437;28;20049;-49
2023/08/26 02:26:00;;;;;;;9.50;7.18;;;;;;;15.55;100.00;100743.09;1035719;28;20038;-50
2023/08/26 02:26:31;;;;;;;9.95;7.75;;;;;;;15.58;100.00;100741.78;1040165;28;20091;-51
2023/08/26 02:27:03;;;;;;;12.88;7.47;;;;;;;15.62;100.00;100740.28;1044153;28;20098;-52
2023/08/26 02:27:36;;;;;;;9.15;8.25;;;;;;;15.60;100.00;100745.88;1047809;28;20131;-52
2023/08/26 02:28:08;;;;;;;12.05;7.85;;;;;;;15.61;100.00;100739.47;1047942;28;20422;-52
2023/08/26 02:28:41;;;;;;;11.75;8.25;;;;;;;15.61;100.00;100739.47;1043969;28;20529;-51
2023/08/26 02:29:13;;;;;;;9.70;8.20;;;;;;;15.68;100.00;100739.25;1043549;28;20064;-51
2023/08/26 02:29:45;;;;;;;8.90;7.95;;;;;;;15.73;100.00;100740.13;1043969;28;20541;-49
2023/08/26 02:30:17;;;;;;;12.05;8.70;;;;;;;15.64;100.00;100741.66;1041049;28;20794;-48
2023/08/26 02:30:48;;;;;;;13.25;8.82;;;;;;;15.64;100.00;100738.97;1039627;28;20147;-49
2023/08/26 02:31:20;;;;;;;9.50;7.75;;;;;;;15.64;100.00;100738.16;1043935;28;20087;-50
2023/08/26 02:31:52;;;;;;;12.45;8.80;;;;;;;15.68;100.00;100737.38;1043693;28;20037;-51
2023/08/26 02:32:23;;;;;;;13.15;8.13;;;;;;;15.67;100.00;100741.13;1047629;28;20052;-51
2023/08/26 02:32:55;;;;;;;9.88;8.88;;;;;;;15.64;100.00;100730.91;1047929;28;20052;-50
2023/08/26 02:33:27;;;;;;;15.85;10.30;;;;;;;15.66;100.00;100731.47;1048370;28;20111;-53
2023/08/26 02:33:59;;;;;;;12.88;8.10;;;;;;;15.52;100.00;100727.50;1048100;28;20055;-49
2023/08/26 02:34:31;;;;;;;10.43;8.75;;;;;;;15.54;100.00;100720.00;1047815;28;20041;-49
2023/08/26 02:35:03;;;;;;;10.63;9.07;;;;;;;15.65;100.00;100729.84;1043578;28;20060;-53
2023/08/26 02:35:35;;;;;;;14.77;9.43;;;;;;;15.64;100.00;100736.28;1039931;28;20399;-54
2023/08/26 02:36:06;;;;;;;12.10;7.95;;;;;;;15.59;100.00;100733.50;1040377;28;20042;-54
2023/08/26 02:36:38;;;;;;;9.48;7.88;;;;;;;15.72;100.00;100726.94;1043295;28;20051;-53
2023/08/26 02:37:11;;;;;;;13.82;8.30;;;;;;;15.76;100.00;100739.63;1047546;28;20056;-54
2023/08/26 02:37:42;;;;;;;10.30;8.52;;;;;;;15.80;100.00;100731.84;1049488;28;20053;-51
2023/08/26 02:38:14;;;;;;;11.25;9.02;;;;;;;15.82;100.00;100731.59;1047938;28;20040;-52
2023/08/26 02:38:46;;;;;;;15.70;8.57;;;;;;;15.77;100.00;100737.75;1048090;28;20553;-54
2023/08/26 02:39:17;;;;;;;10.85;8.88;;;;;;;15.72;100.00;100743.06;1048239;28;20127;-54
2023/08/26 02:39:50;;;;;;;12.90;8.77;;;;;;;15.72;100.00;100737.69;1045125;28;20065;-53
2023/08/26 02:40:22;;;;;;;11.02;8.63;;;;;;;15.77;100.00;100741.25;1043501;28;20068;-54
2023/08/26 02:40:54;;;;;;;9.70;7.75;;;;;;;15.79;100.00;100740.16;1043924;28;20495;-52
2023/08/26 02:41:25;;;;;;;10.02;8.45;;;;;;;15.68;100.00;100737.38;1037265;28;20474;-49
2023/08/26 02:41:57;;;;;;;19.05;10.65;;;;;;;15.67;100.00;100741.13;1039962;28;20063;-49
2023/08/26 02:42:29;;;;;;;12.07;10.25;;;;;;;15.80;100.00;100744.47;1039434;28;20063;-52
2023/08/26 02:43:01;;;;;;;14.48;10.95;;;;;;;15.75;100.00;100742.56;1036098;28;20042;-50
2023/08/26 02:43:32;;;;;;;11.88;8.68;;;;;;;15.77;100.00;100749.28;1040245;28;20140;-50
2023/08/26 02:44:04;;;;;;;10.77;9.68;;;;;;;15.71;100.00;100742.25;1044202;28;20040;-51
2023/08/26 02:44:36;;;;;;;13.55;8.63;;;;;;;15.49;100.00;100737.94;1043493;28;20053;-48
2023/08/26 02:45:07;;;;;;;10.43;9.20;;;;;;;15.66;100.00;100744.88;1047655;28;20230;-50
2023/08/26 02:45:39;;;;;;;11.23;10.00;;;;;;;15.45;100.00;100743.00;1047573;28;20056;-49
2023/08/26 02:46:11;;;;;;;12.77;9.07;;;;;;;15.59;100.00;100749.63;1047917;28;20525;-51
2023/08/26 02:46:43;;;;;;;9.60;8.02;;;;;;;15.50;100.00;100745.75;1047590;28;20146;-48
2023/08/26 02:47:14;;;;;;;13.15;8.52;;;;;;;15.55;100.00;100739.59;1043082;28;20691;-51
2023/08/26 02:47:46;;;;;;;9.02;8.13;;;;;;;15.41;100.00;100744.56;1039493;28;20099;-53
2023/08/26 02:48:22;;;;;;;12.52;9.02;;;;;;;15.57;100.00;100740.97;1037012;28;20053;-54
2023/08/26 02:48:53;;;;;;;14.23;9.80;;;;;;;15.57;100.00;100740.97;1040133;28;20127;-54
2023/08/26 02:49:26;;;;;;;12.00;9.35;;;;;;;15.55;100.00;100748.47;1040583;28;20061;-54
2023/08/26 02:49:58;;;;;;;11.98;8.68;;;;;;;15.61;100.00;100752.06;1043276;28;20045;-54
2023/08/26 02:50:35;;;;;;;11.43;9.80;;;;;;;15.62;100.00;100743.78;1043179;28;20047;-54
2023/08/26 02:51:07;;;;;;;12.68;9.40;;;;;;;15.68;100.00;100737.38;1043578;28;20045;-51
2023/08/26 02:51:39;;;;;;;13.40;9.27;;;;;;;15.66;100.00;100744.88;1044993;28;20121;-52
2023/08/26 02:52:10;;;;;;;15.80;9.68;;;;;;;15.62;100.00;100743.78;1047304;28;20098;-51
2023/08/26 02:52:45;;;;;;;19.52;10.82;;;;;;;15.62;100.00;100743.78;1048104;28;20048;-52
2023/08/26 02:53:16;;;;;;;14.35;10.07;;;;;;;15.69;100.00;100741.69;1047673;28;20040;-54
2023/08/26 02:53:48;;;;;;;14.80;10.45;;;;;;;15.69;100.00;100739.00;1043516;28;20044;-49
2023/08/26 02:54:19;;;;;;;20.95;12.00;;;;;;;15.76;100.00;100746.88;1043437;28;20041;-49
2023/08/26 02:54:51;;;;;;;15.40;12.13;;;;;;;15.76;100.00;100739.63;1039719;28;20065;-51
2023/08/26 02:55:22;;;;;;;17.35;10.77;;;;;;;15.80;100.00;100739.09;1042848;28;20049;-49
2023/08/26 02:55:55;;;;;;;12.25;10.73;;;;;;;15.67;100.00;100741.13;1043619;28;20037;-50
2023/08/26 02:56:26;;;;;;;15.07;10.57;;;;;;;15.74;100.00;100746.31;1044087;28;20118;-51
2023/08/26 02:57:02;;;;;;;20.80;11.10;;;;;;;15.61;100.00;100744.84;1044013;28;20109;-49
2023/08/26 02:57:34;;;;;;;11.98;10.75;;;;;;;15.69;100.00;100744.38;1047379;28;20182;-48
2023/08/26 02:58:05;;;;;;;16.50;12.43;;;;;;;15.66;100.00;100744.88;1046425;28;20489;-50
2023/08/26 02:58:37;;;;;;;14.75;10.05;;;;;;;15.75;100.00;100740.69;1047548;28;20113;-51
2023/08/26 02:59:09;;;;;;;12.60;10.57;;;;;;;15.74;100.00;100744.44;1047243;28;20121;-52
2023/08/26 02:59:40;;;;;;;14.80;10.38;;;;;;;15.67;100.00;100743.81;1044147;28;20072;-51
2023/08/26 03:00:13;;;;;;;16.48;11.30;;;;;;;15.74;100.00;100741.75;1044228;28;20182;-50
2023/08/26 03:00:46;;;;;;;14.48;9.90;;;;;;;15.72;100.00;100743.88;1043104;28;20153;-52
2023/08/26 03:01:18;;;;;;;11.10;9.73;;;;;;;15.71;100.00;100744.13;1044087;28;20570;-54
2023/08/26 03:01:58;;;;;;;17.65;10.10;;;;;;;15.73;100.00;100740.13;1044143;28;20104;-54
2023/08/26 03:02:30;;;;;;;17.20;11.45;;;;;;;15.71;100.00;100744.94;1045666;28;20044;-54
2023/08/26 03:03:01;;;;;;;13.43;11.52;;;;;;;15.69;100.00;100744.38;1040564;28;20523;-54
2023/08/26 03:03:33;;;;;;;18.80;10.85;;;;;;;15.74;100.00;100739.06;1039970;28;20053;-54
2023/08/26 03:04:05;;;;;;;18.02;10.70;;;;;;;15.69;100.00;100749.75;1039635;28;20115;-50
2023/08/26 03:04:37;;;;;;;15.27;11.20;;;;;;;15.64;100.00;100743.53;1040181;28;20397;-50
2023/08/26 03:05:09;;;;;;;16.45;11.18;;;;;;;15.68;100.00;100748.13;1044443;28;20406;-50
2023/08/26 03:05:42;;;;;;;14.45;11.38;;;;;;;15.69;100.00;100749.75;1043261;28;20041;-53
2023/08/26 03:06:13;;;;;;;13.88;9.98;;;;;;;15.63;100.00;100750.75;1039932;28;20239;-54
2023/08/26 03:06:45;;;;;;;13.90;10.68;;;;;;;15.50;100.00;100750.28;1043126;28;20395;-54
2023/08/26 03:07:17;;;;;;;15.73;11.70;;;;;;;15.65;100.00;100747.84;1043483;28;20056;-54
2023/08/26 03:07:48;;;;;;;11.85;9.55;;;;;;;15.57;100.00;100746.34;1048846;28;20037;-48
2023/08/26 03:08:23;;;;;;;13.98;10.35;;;;;;;15.64;100.00;100752.38;1047558;28;20052;-50
2023/08/26 03:08:55;;;;;;;13.68;10.10;;;;;;;15.57;100.00;100750.91;1046983;28;20047;-50
2023/08/26 03:09:28;;;;;;;13.27;9.82;;;;;;;15.65;100.00;100756.69;1047683;28;20132;-50
2023/08/26 03:09:59;;;;;;;12.60;10.05;;;;;;;15.59;100.00;100746.94;1048201;28;20493;-54
2023/08/26 03:10:32;;;;;;;13.63;9.77;;;;;;;15.63;100.00;100748.09;1047411;28;20032;-54
2023/08/26 03:11:04;;;;;;;9.88;8.32;;;;;;;15.60;100.00;100745.88;1047926;28;20512;-54
2023/08/26 03:11:36;;;;;;;13.65;10.45;;;;;;;15.50;100.00;100740.38;1047336;28;20660;-54
2023/08/26 03:12:10;;;;;;;11.77;8.10;;;;;;;15.45;100.00;100748.38;1043126;28;20071;-54
2023/08/26 03:12:41;;;;;;;12.35;8.95;;;;;;;15.40;100.00;100745.63;1042948;28;20503;-54